sensor_id;sensor_type;location;lat;lon;timestamp;temperature;humidity
66522;SHT31;53349;53.538;8.584;2023-09-30T00:01:00;15.03;77.69
66522;SHT31;53349;53.538;8.584;2023-09-30T00:03:25;14.98;77.70
66522;SHT31;53349;53.538;8.584;2023-09-30T00:05:58;14.93;77.78
66522;SHT31;53349;53.538;8.584;2023-09-30T00:08:24;14.86;77.91
66522;SHT31;53349;53.538;8.584;2023-09-30T00:10:49;14.88;77.98
66522;SHT31;53349;53.538;8.584;2023-09-30T00:13:14;14.85;78.17
66522;SHT31;53349;53.538;8.584;2023-09-30T00:15:40;14.81;78.31
66522;SHT31;53349;53.538;8.584;2023-09-30T00:18:06;14.74;78.44
66522;SHT31;53349;53.538;8.584;2023-09-30T00:20:32;14.71;78.54
66522;SHT31;53349;53.538;8.584;2023-09-30T00:22:58;14.72;78.55
66522;SHT31;53349;53.538;8.584;2023-09-30T00:25:24;14.71;78.63
66522;SHT31;53349;53.538;8.584;2023-09-30T00:27:51;14.71;78.79
66522;SHT31;53349;53.538;8.584;2023-09-30T00:30:16;14.65;79.13
66522;SHT31;53349;53.538;8.584;2023-09-30T00:32:42;14.68;79.19
66522;SHT31;53349;53.538;8.584;2023-09-30T00:35:08;14.71;79.37
66522;SHT31;53349;53.538;8.584;2023-09-30T00:37:33;14.71;79.54
66522;SHT31;53349;53.538;8.584;2023-09-30T00:39:59;14.71;79.51
66522;SHT31;53349;53.538;8.584;2023-09-30T00:42:24;14.72;79.47
66522;SHT31;53349;53.538;8.584;2023-09-30T00:44:49;14.72;79.52
66522;SHT31;53349;53.538;8.584;2023-09-30T00:47:15;14.69;79.38
66522;SHT31;53349;53.538;8.584;2023-09-30T00:49:41;14.67;79.14
66522;SHT31;53349;53.538;8.584;2023-09-30T00:52:06;14.61;79.10
66522;SHT31;53349;53.538;8.584;2023-09-30T00:54:33;14.63;79.43
66522;SHT31;53349;53.538;8.584;2023-09-30T00:56:59;14.64;79.48
66522;SHT31;53349;53.538;8.584;2023-09-30T00:59:25;14.64;79.46
66522;SHT31;53349;53.538;8.584;2023-09-30T01:01:54;14.60;79.66
66522;SHT31;53349;53.538;8.584;2023-09-30T01:04:21;14.61;79.66
66522;SHT31;53349;53.538;8.584;2023-09-30T01:06:46;14.60;79.77
66522;SHT31;53349;53.538;8.584;2023-09-30T01:09:12;14.61;79.74
66522;SHT31;53349;53.538;8.584;2023-09-30T01:11:37;14.61;79.63
66522;SHT31;53349;53.538;8.584;2023-09-30T01:14:03;14.63;79.38
66522;SHT31;53349;53.538;8.584;2023-09-30T01:16:30;14.54;79.49
66522;SHT31;53349;53.538;8.584;2023-09-30T01:18:55;14.54;79.61
66522;SHT31;53349;53.538;8.584;2023-09-30T01:21:24;14.55;79.69
66522;SHT31;53349;53.538;8.584;2023-09-30T01:23:49;14.55;79.84
66522;SHT31;53349;53.538;8.584;2023-09-30T01:26:15;14.57;79.92
66522;SHT31;53349;53.538;8.584;2023-09-30T01:28:41;14.57;79.89
66522;SHT31;53349;53.538;8.584;2023-09-30T01:31:07;14.58;79.82
66522;SHT31;53349;53.538;8.584;2023-09-30T01:33:32;14.54;79.88
66522;SHT31;53349;53.538;8.584;2023-09-30T01:35:59;14.55;80.10
66522;SHT31;53349;53.538;8.584;2023-09-30T01:38:24;14.58;80.22
66522;SHT31;53349;53.538;8.584;2023-09-30T01:40:49;14.55;80.34
66522;SHT31;53349;53.538;8.584;2023-09-30T01:43:16;14.52;80.34
66522;SHT31;53349;53.538;8.584;2023-09-30T01:45:42;14.51;80.30
66522;SHT31;53349;53.538;8.584;2023-09-30T01:48:08;14.51;80.31
66522;SHT31;53349;53.538;8.584;2023-09-30T01:50:33;14.49;80.23
66522;SHT31;53349;53.538;8.584;2023-09-30T01:52:59;14.44;80.08
66522;SHT31;53349;53.538;8.584;2023-09-30T01:55:25;14.41;80.07
66522;SHT31;53349;53.538;8.584;2023-09-30T01:57:50;14.37;80.09
66522;SHT31;53349;53.538;8.584;2023-09-30T02:00:16;14.34;79.99
66522;SHT31;53349;53.538;8.584;2023-09-30T02:02:41;14.33;80.01
66522;SHT31;53349;53.538;8.584;2023-09-30T02:05:07;14.31;80.09
66522;SHT31;53349;53.538;8.584;2023-09-30T02:07:35;14.33;80.34
66522;SHT31;53349;53.538;8.584;2023-09-30T02:10:01;14.28;80.49
66522;SHT31;53349;53.538;8.584;2023-09-30T02:12:27;14.30;80.67
66522;SHT31;53349;53.538;8.584;2023-09-30T02:14:53;14.28;80.43
66522;SHT31;53349;53.538;8.584;2023-09-30T02:17:22;14.24;80.30
66522;SHT31;53349;53.538;8.584;2023-09-30T02:19:48;14.21;80.32
66522;SHT31;53349;53.538;8.584;2023-09-30T02:22:15;14.17;80.39
66522;SHT31;53349;53.538;8.584;2023-09-30T02:24:41;14.21;80.30
66522;SHT31;53349;53.538;8.584;2023-09-30T02:27:08;14.24;80.04
66522;SHT31;53349;53.538;8.584;2023-09-30T02:29:33;14.26;79.81
66522;SHT31;53349;53.538;8.584;2023-09-30T02:31:59;14.26;79.81
66522;SHT31;53349;53.538;8.584;2023-09-30T02:34:24;14.27;79.87
66522;SHT31;53349;53.538;8.584;2023-09-30T02:36:50;14.18;79.83
66522;SHT31;53349;53.538;8.584;2023-09-30T02:39:15;14.18;79.92
66522;SHT31;53349;53.538;8.584;2023-09-30T02:41:40;14.16;79.90
66522;SHT31;53349;53.538;8.584;2023-09-30T02:44:06;14.13;79.98
66522;SHT31;53349;53.538;8.584;2023-09-30T02:46:31;14.12;80.14
66522;SHT31;53349;53.538;8.584;2023-09-30T02:48:56;14.10;80.24
66522;SHT31;53349;53.538;8.584;2023-09-30T02:51:22;14.10;80.29
66522;SHT31;53349;53.538;8.584;2023-09-30T02:53:48;14.10;80.24
66522;SHT31;53349;53.538;8.584;2023-09-30T02:56:14;14.12;80.17
66522;SHT31;53349;53.538;8.584;2023-09-30T02:58:40;14.12;80.15
66522;SHT31;53349;53.538;8.584;2023-09-30T03:01:06;14.16;80.22
66522;SHT31;53349;53.538;8.584;2023-09-30T03:03:32;14.16;80.16
66522;SHT31;53349;53.538;8.584;2023-09-30T03:05:58;14.20;80.06
66522;SHT31;53349;53.538;8.584;2023-09-30T03:08:23;14.20;80.10
66522;SHT31;53349;53.538;8.584;2023-09-30T03:10:49;14.20;80.06
66522;SHT31;53349;53.538;8.584;2023-09-30T03:13:14;14.23;79.90
66522;SHT31;53349;53.538;8.584;2023-09-30T03:15:41;14.23;79.93
66522;SHT31;53349;53.538;8.584;2023-09-30T03:18:06;14.18;80.10
66522;SHT31;53349;53.538;8.584;2023-09-30T03:20:31;14.20;80.06
66522;SHT31;53349;53.538;8.584;2023-09-30T03:22:57;14.18;79.95
66522;SHT31;53349;53.538;8.584;2023-09-30T03:25:22;14.17;79.77
66522;SHT31;53349;53.538;8.584;2023-09-30T03:27:49;14.23;79.72
66522;SHT31;53349;53.538;8.584;2023-09-30T03:30:16;14.20;79.88
66522;SHT31;53349;53.538;8.584;2023-09-30T03:32:42;14.17;80.10
66522;SHT31;53349;53.538;8.584;2023-09-30T03:35:10;14.18;80.21
66522;SHT31;53349;53.538;8.584;2023-09-30T03:37:36;14.18;80.35
66522;SHT31;53349;53.538;8.584;2023-09-30T03:40:03;14.16;80.48
66522;SHT31;53349;53.538;8.584;2023-09-30T03:42:28;14.13;80.49
66522;SHT31;53349;53.538;8.584;2023-09-30T03:44:54;14.12;80.26
66522;SHT31;53349;53.538;8.584;2023-09-30T03:47:19;14.12;80.08
66522;SHT31;53349;53.538;8.584;2023-09-30T03:49:44;14.12;80.25
66522;SHT31;53349;53.538;8.584;2023-09-30T03:52:11;14.09;80.43
66522;SHT31;53349;53.538;8.584;2023-09-30T03:54:36;14.06;80.41
66522;SHT31;53349;53.538;8.584;2023-09-30T03:57:02;14.02;80.26
66522;SHT31;53349;53.538;8.584;2023-09-30T03:59:27;13.93;80.05
66522;SHT31;53349;53.538;8.584;2023-09-30T04:01:54;13.89;80.02
66522;SHT31;53349;53.538;8.584;2023-09-30T04:04:20;13.86;80.08
66522;SHT31;53349;53.538;8.584;2023-09-30T04:06:46;13.87;80.14
66522;SHT31;53349;53.538;8.584;2023-09-30T04:09:12;13.86;80.42
66522;SHT31;53349;53.538;8.584;2023-09-30T04:11:38;13.85;80.57
66522;SHT31;53349;53.538;8.584;2023-09-30T04:14:05;13.86;80.59
66522;SHT31;53349;53.538;8.584;2023-09-30T04:16:32;13.83;80.79
66522;SHT31;53349;53.538;8.584;2023-09-30T04:18:57;13.86;80.95
66522;SHT31;53349;53.538;8.584;2023-09-30T04:21:23;13.83;80.97
66522;SHT31;53349;53.538;8.584;2023-09-30T04:23:48;13.86;80.93
66522;SHT31;53349;53.538;8.584;2023-09-30T04:26:13;13.82;80.88
66522;SHT31;53349;53.538;8.584;2023-09-30T04:28:39;13.82;80.82
66522;SHT31;53349;53.538;8.584;2023-09-30T04:31:04;13.82;80.76
66522;SHT31;53349;53.538;8.584;2023-09-30T04:33:29;13.79;80.69
66522;SHT31;53349;53.538;8.584;2023-09-30T04:35:55;13.79;80.57
66522;SHT31;53349;53.538;8.584;2023-09-30T04:38:20;13.70;80.40
66522;SHT31;53349;53.538;8.584;2023-09-30T04:40:45;13.63;80.59
66522;SHT31;53349;53.538;8.584;2023-09-30T04:43:12;13.62;80.68
66522;SHT31;53349;53.538;8.584;2023-09-30T04:45:37;13.62;80.72
66522;SHT31;53349;53.538;8.584;2023-09-30T04:48:03;13.62;80.84
66522;SHT31;53349;53.538;8.584;2023-09-30T04:50:29;13.63;81.04
66522;SHT31;53349;53.538;8.584;2023-09-30T04:52:54;13.61;81.05
66522;SHT31;53349;53.538;8.584;2023-09-30T04:55:20;13.61;81.10
66522;SHT31;53349;53.538;8.584;2023-09-30T04:57:47;13.65;81.12
66522;SHT31;53349;53.538;8.584;2023-09-30T05:00:13;13.65;81.18
66522;SHT31;53349;53.538;8.584;2023-09-30T05:02:39;13.65;81.32
66522;SHT31;53349;53.538;8.584;2023-09-30T05:05:05;13.67;81.35
66522;SHT31;53349;53.538;8.584;2023-09-30T05:07:30;13.70;81.32
66522;SHT31;53349;53.538;8.584;2023-09-30T05:09:56;13.69;81.38
66522;SHT31;53349;53.538;8.584;2023-09-30T05:12:21;13.67;81.17
66522;SHT31;53349;53.538;8.584;2023-09-30T05:14:48;13.70;81.08
66522;SHT31;53349;53.538;8.584;2023-09-30T05:17:14;13.63;81.08
66522;SHT31;53349;53.538;8.584;2023-09-30T05:19:40;13.63;81.10
66522;SHT31;53349;53.538;8.584;2023-09-30T05:22:05;13.62;81.11
66522;SHT31;53349;53.538;8.584;2023-09-30T05:24:31;13.65;81.22
66522;SHT31;53349;53.538;8.584;2023-09-30T05:26:56;13.69;81.34
66522;SHT31;53349;53.538;8.584;2023-09-30T05:29:21;13.73;81.34
66522;SHT31;53349;53.538;8.584;2023-09-30T05:31:47;13.70;81.50
66522;SHT31;53349;53.538;8.584;2023-09-30T05:34:14;13.69;81.55
66522;SHT31;53349;53.538;8.584;2023-09-30T05:36:39;13.69;81.46
66522;SHT31;53349;53.538;8.584;2023-09-30T05:39:05;13.69;81.39
66522;SHT31;53349;53.538;8.584;2023-09-30T05:41:34;13.72;81.37
66522;SHT31;53349;53.538;8.584;2023-09-30T05:44:00;13.72;81.37
66522;SHT31;53349;53.538;8.584;2023-09-30T05:46:25;13.72;81.29
66522;SHT31;53349;53.538;8.584;2023-09-30T05:48:51;13.70;81.20
66522;SHT31;53349;53.538;8.584;2023-09-30T05:51:16;13.72;81.22
66522;SHT31;53349;53.538;8.584;2023-09-30T05:53:41;13.72;81.30
66522;SHT31;53349;53.538;8.584;2023-09-30T05:56:08;13.72;81.37
66522;SHT31;53349;53.538;8.584;2023-09-30T05:58:34;13.70;81.31
66522;SHT31;53349;53.538;8.584;2023-09-30T06:01:10;13.70;81.23
66522;SHT31;53349;53.538;8.584;2023-09-30T06:03:36;13.66;81.11
66522;SHT31;53349;53.538;8.584;2023-09-30T06:06:03;13.62;80.99
66522;SHT31;53349;53.538;8.584;2023-09-30T06:08:35;13.61;80.87
66522;SHT31;53349;53.538;8.584;2023-09-30T06:11:01;13.59;80.74
66522;SHT31;53349;53.538;8.584;2023-09-30T06:13:28;13.54;80.84
66522;SHT31;53349;53.538;8.584;2023-09-30T06:15:53;13.56;80.85
66522;SHT31;53349;53.538;8.584;2023-09-30T06:18:19;13.55;80.79
66522;SHT31;53349;53.538;8.584;2023-09-30T06:20:44;13.56;80.85
66522;SHT31;53349;53.538;8.584;2023-09-30T06:23:11;13.59;80.93
66522;SHT31;53349;53.538;8.584;2023-09-30T06:25:39;13.62;80.86
66522;SHT31;53349;53.538;8.584;2023-09-30T06:28:07;13.70;80.69
66522;SHT31;53349;53.538;8.584;2023-09-30T06:30:32;13.73;80.51
66522;SHT31;53349;53.538;8.584;2023-09-30T06:33:00;13.75;80.33
66522;SHT31;53349;53.538;8.584;2023-09-30T06:35:27;13.82;80.20
66522;SHT31;53349;53.538;8.584;2023-09-30T06:37:53;13.85;80.02
66522;SHT31;53349;53.538;8.584;2023-09-30T06:40:19;13.87;79.99
66522;SHT31;53349;53.538;8.584;2023-09-30T06:42:44;13.96;79.91
66522;SHT31;53349;53.538;8.584;2023-09-30T06:45:11;14.00;79.93
66522;SHT31;53349;53.538;8.584;2023-09-30T06:47:37;14.09;79.97
66522;SHT31;53349;53.538;8.584;2023-09-30T06:50:04;14.18;79.88
66522;SHT31;53349;53.538;8.584;2023-09-30T06:52:30;14.30;79.63
66522;SHT31;53349;53.538;8.584;2023-09-30T06:54:56;14.37;79.48
66522;SHT31;53349;53.538;8.584;2023-09-30T06:57:23;14.42;79.39
66522;SHT31;53349;53.538;8.584;2023-09-30T06:59:48;14.49;79.28
66522;SHT31;53349;53.538;8.584;2023-09-30T07:02:14;14.55;79.23
66522;SHT31;53349;53.538;8.584;2023-09-30T07:04:39;14.61;79.04
66522;SHT31;53349;53.538;8.584;2023-09-30T07:07:04;14.68;78.93
66522;SHT31;53349;53.538;8.584;2023-09-30T07:09:31;14.75;78.66
66522;SHT31;53349;53.538;8.584;2023-09-30T07:11:57;14.77;78.36
66522;SHT31;53349;53.538;8.584;2023-09-30T07:14:22;14.88;78.23
66522;SHT31;53349;53.538;8.584;2023-09-30T07:16:48;14.95;78.15
66522;SHT31;53349;53.538;8.584;2023-09-30T07:19:13;14.96;77.97
66522;SHT31;53349;53.538;8.584;2023-09-30T07:21:38;14.96;78.00
66522;SHT31;53349;53.538;8.584;2023-09-30T07:24:04;15.02;77.76
66522;SHT31;53349;53.538;8.584;2023-09-30T07:26:31;15.08;77.80
66522;SHT31;53349;53.538;8.584;2023-09-30T07:28:57;15.12;77.82
66522;SHT31;53349;53.538;8.584;2023-09-30T07:31:23;15.13;77.60
66522;SHT31;53349;53.538;8.584;2023-09-30T07:33:50;15.20;77.60
66522;SHT31;53349;53.538;8.584;2023-09-30T07:36:15;15.23;77.58
66522;SHT31;53349;53.538;8.584;2023-09-30T07:38:42;15.29;77.48
66522;SHT31;53349;53.538;8.584;2023-09-30T07:41:08;15.35;77.32
66522;SHT31;53349;53.538;8.584;2023-09-30T07:43:33;15.37;77.31
66522;SHT31;53349;53.538;8.584;2023-09-30T07:46:05;15.47;77.13
66522;SHT31;53349;53.538;8.584;2023-09-30T07:48:38;15.51;76.89
66522;SHT31;53349;53.538;8.584;2023-09-30T07:51:04;15.56;77.44
66522;SHT31;53349;53.538;8.584;2023-09-30T07:53:31;15.60;77.16
66522;SHT31;53349;53.538;8.584;2023-09-30T07:55:56;15.71;77.20
66522;SHT31;53349;53.538;8.584;2023-09-30T07:58:21;15.78;77.09
66522;SHT31;53349;53.538;8.584;2023-09-30T08:00:47;15.90;76.61
66522;SHT31;53349;53.538;8.584;2023-09-30T08:03:12;16.05;76.52
66522;SHT31;53349;53.538;8.584;2023-09-30T08:05:39;16.11;76.29
66522;SHT31;53349;53.538;8.584;2023-09-30T08:08:04;16.19;76.14
66522;SHT31;53349;53.538;8.584;2023-09-30T08:10:30;16.26;76.13
66522;SHT31;53349;53.538;8.584;2023-09-30T08:12:55;16.32;76.00
66522;SHT31;53349;53.538;8.584;2023-09-30T08:15:20;16.38;75.57
66522;SHT31;53349;53.538;8.584;2023-09-30T08:17:46;16.46;75.44
66522;SHT31;53349;53.538;8.584;2023-09-30T08:20:12;16.59;75.19
66522;SHT31;53349;53.538;8.584;2023-09-30T08:22:38;16.67;75.34
66522;SHT31;53349;53.538;8.584;2023-09-30T08:25:05;16.86;75.41
66522;SHT31;53349;53.538;8.584;2023-09-30T08:27:31;16.96;74.86
66522;SHT31;53349;53.538;8.584;2023-09-30T08:29:59;17.11;74.60
66522;SHT31;53349;53.538;8.584;2023-09-30T08:32:24;17.23;74.38
66522;SHT31;53349;53.538;8.584;2023-09-30T08:34:50;17.34;74.36
66522;SHT31;53349;53.538;8.584;2023-09-30T08:37:15;17.51;73.66
66522;SHT31;53349;53.538;8.584;2023-09-30T08:39:41;17.65;73.46
66522;SHT31;53349;53.538;8.584;2023-09-30T08:42:09;17.81;73.17
66522;SHT31;53349;53.538;8.584;2023-09-30T08:44:40;18.00;72.75
66522;SHT31;53349;53.538;8.584;2023-09-30T08:47:06;18.22;72.53
66522;SHT31;53349;53.538;8.584;2023-09-30T08:49:34;18.47;71.91
66522;SHT31;53349;53.538;8.584;2023-09-30T08:52:02;18.67;70.67
66522;SHT31;53349;53.538;8.584;2023-09-30T08:54:29;18.91;70.91
66522;SHT31;53349;53.538;8.584;2023-09-30T08:56:55;19.15;70.02
66522;SHT31;53349;53.538;8.584;2023-09-30T08:59:23;19.35;69.34
66522;SHT31;53349;53.538;8.584;2023-09-30T09:01:49;19.50;68.84
66522;SHT31;53349;53.538;8.584;2023-09-30T09:04:15;19.62;68.42
66522;SHT31;53349;53.538;8.584;2023-09-30T09:06:41;19.80;67.55
66522;SHT31;53349;53.538;8.584;2023-09-30T09:09:14;20.06;67.46
66522;SHT31;53349;53.538;8.584;2023-09-30T09:11:39;20.24;66.58
66522;SHT31;53349;53.538;8.584;2023-09-30T09:14:07;20.39;65.66
66522;SHT31;53349;53.538;8.584;2023-09-30T09:16:33;20.56;65.18
66522;SHT31;53349;53.538;8.584;2023-09-30T09:18:58;20.75;64.70
66522;SHT31;53349;53.538;8.584;2023-09-30T09:21:23;20.92;64.04
66522;SHT31;53349;53.538;8.584;2023-09-30T09:23:50;21.06;63.56
66522;SHT31;53349;53.538;8.584;2023-09-30T09:26:29;21.23;63.49
66522;SHT31;53349;53.538;8.584;2023-09-30T09:28:59;21.53;62.63
66522;SHT31;53349;53.538;8.584;2023-09-30T09:31:26;21.65;62.07
66522;SHT31;53349;53.538;8.584;2023-09-30T09:33:53;21.89;60.97
66522;SHT31;53349;53.538;8.584;2023-09-30T09:36:19;22.05;60.12
66522;SHT31;53349;53.538;8.584;2023-09-30T09:38:49;22.16;59.59
66522;SHT31;53349;53.538;8.584;2023-09-30T09:41:16;22.16;59.12
66522;SHT31;53349;53.538;8.584;2023-09-30T09:43:42;22.19;59.59
66522;SHT31;53349;53.538;8.584;2023-09-30T09:46:09;22.32;58.90
66522;SHT31;53349;53.538;8.584;2023-09-30T09:48:37;22.23;59.16
66522;SHT31;53349;53.538;8.584;2023-09-30T09:51:06;22.37;58.48
66522;SHT31;53349;53.538;8.584;2023-09-30T09:53:36;22.37;58.81
66522;SHT31;53349;53.538;8.584;2023-09-30T09:56:03;22.47;58.62
66522;SHT31;53349;53.538;8.584;2023-09-30T09:58:32;22.22;59.53
66522;SHT31;53349;53.538;8.584;2023-09-30T10:00:58;22.29;59.20
66522;SHT31;53349;53.538;8.584;2023-09-30T10:03:24;22.28;59.48
66522;SHT31;53349;53.538;8.584;2023-09-30T10:05:49;22.04;60.05
66522;SHT31;53349;53.538;8.584;2023-09-30T10:08:17;21.98;59.38
66522;SHT31;53349;53.538;8.584;2023-09-30T10:10:44;21.88;60.17
66522;SHT31;53349;53.538;8.584;2023-09-30T10:14:03;21.87;60.21
66522;SHT31;53349;53.538;8.584;2023-09-30T10:19:12;22.20;59.80
66522;SHT31;53349;53.538;8.584;2023-09-30T10:21:39;22.20;59.85
66522;SHT31;53349;53.538;8.584;2023-09-30T10:27:29;22.78;59.30
66522;SHT31;53349;53.538;8.584;2023-09-30T10:35:21;22.80;57.01
66522;SHT31;53349;53.538;8.584;2023-09-30T10:40:49;22.67;58.26
66522;SHT31;53349;53.538;8.584;2023-09-30T10:43:34;22.42;59.13
66522;SHT31;53349;53.538;8.584;2023-09-30T10:46:00;22.40;57.76
66522;SHT31;53349;53.538;8.584;2023-09-30T10:51:18;22.47;57.47
66522;SHT31;53349;53.538;8.584;2023-09-30T10:53:45;22.47;57.84
66522;SHT31;53349;53.538;8.584;2023-09-30T10:56:11;22.42;57.73
66522;SHT31;53349;53.538;8.584;2023-09-30T11:01:32;22.22;58.14
66522;SHT31;53349;53.538;8.584;2023-09-30T11:04:01;22.16;58.40
66522;SHT31;53349;53.538;8.584;2023-09-30T11:06:27;22.04;58.35
66522;SHT31;53349;53.538;8.584;2023-09-30T11:08:55;21.95;58.36
66522;SHT31;53349;53.538;8.584;2023-09-30T11:11:34;21.91;58.72
66522;SHT31;53349;53.538;8.584;2023-09-30T11:13:59;21.69;58.60
66522;SHT31;53349;53.538;8.584;2023-09-30T11:16:25;21.75;58.14
66522;SHT31;53349;53.538;8.584;2023-09-30T11:18:54;21.73;58.08
66522;SHT31;53349;53.538;8.584;2023-09-30T11:21:19;21.67;58.62
66522;SHT31;53349;53.538;8.584;2023-09-30T11:23:46;21.67;59.10
66522;SHT31;53349;53.538;8.584;2023-09-30T11:26:12;21.61;58.82
66522;SHT31;53349;53.538;8.584;2023-09-30T11:28:40;21.54;59.37
66522;SHT31;53349;53.538;8.584;2023-09-30T11:31:11;21.62;59.48
66522;SHT31;53349;53.538;8.584;2023-09-30T11:33:52;21.54;58.85
66522;SHT31;53349;53.538;8.584;2023-09-30T11:36:20;21.41;59.57
66522;SHT31;53349;53.538;8.584;2023-09-30T11:38:46;21.16;59.74
66522;SHT31;53349;53.538;8.584;2023-09-30T11:41:13;20.97;59.84
66522;SHT31;53349;53.538;8.584;2023-09-30T11:43:41;20.79;60.65
66522;SHT31;53349;53.538;8.584;2023-09-30T11:46:22;20.75;60.47
66522;SHT31;53349;53.538;8.584;2023-09-30T11:48:58;20.75;60.56
66522;SHT31;53349;53.538;8.584;2023-09-30T11:51:24;20.90;60.44
66522;SHT31;53349;53.538;8.584;2023-09-30T11:53:50;20.79;60.89
66522;SHT31;53349;53.538;8.584;2023-09-30T11:56:15;20.65;61.00
66522;SHT31;53349;53.538;8.584;2023-09-30T11:58:46;20.42;60.14
66522;SHT31;53349;53.538;8.584;2023-09-30T12:01:14;20.39;60.22
66522;SHT31;53349;53.538;8.584;2023-09-30T12:03:40;20.44;60.36
66522;SHT31;53349;53.538;8.584;2023-09-30T12:06:06;20.41;61.13
66522;SHT31;53349;53.538;8.584;2023-09-30T12:08:32;20.62;63.73
66522;SHT31;53349;53.538;8.584;2023-09-30T12:10:59;20.78;61.89
66522;SHT31;53349;53.538;8.584;2023-09-30T12:13:24;20.90;61.04
66522;SHT31;53349;53.538;8.584;2023-09-30T12:15:50;21.02;60.70
66522;SHT31;53349;53.538;8.584;2023-09-30T12:18:15;21.06;60.37
66522;SHT31;53349;53.538;8.584;2023-09-30T12:20:40;21.09;59.77
66522;SHT31;53349;53.538;8.584;2023-09-30T12:23:06;21.17;60.15
66522;SHT31;53349;53.538;8.584;2023-09-30T12:25:31;21.14;59.82
66522;SHT31;53349;53.538;8.584;2023-09-30T12:27:57;21.14;59.68
66522;SHT31;53349;53.538;8.584;2023-09-30T12:30:28;21.20;58.40
66522;SHT31;53349;53.538;8.584;2023-09-30T12:32:53;20.95;59.61
66522;SHT31;53349;53.538;8.584;2023-09-30T12:35:19;20.72;60.23
66522;SHT31;53349;53.538;8.584;2023-09-30T12:37:44;20.65;59.85
66522;SHT31;53349;53.538;8.584;2023-09-30T12:40:10;20.59;60.14
66522;SHT31;53349;53.538;8.584;2023-09-30T12:42:35;20.45;60.75
66522;SHT31;53349;53.538;8.584;2023-09-30T12:45:01;20.41;61.06
66522;SHT31;53349;53.538;8.584;2023-09-30T12:47:27;20.42;61.83
66522;SHT31;53349;53.538;8.584;2023-09-30T12:49:52;20.44;61.00
66522;SHT31;53349;53.538;8.584;2023-09-30T12:52:18;20.44;60.06
66522;SHT31;53349;53.538;8.584;2023-09-30T12:54:44;20.39;59.53
66522;SHT31;53349;53.538;8.584;2023-09-30T12:57:09;20.32;60.29
66522;SHT31;53349;53.538;8.584;2023-09-30T12:59:34;20.35;60.36
66522;SHT31;53349;53.538;8.584;2023-09-30T13:02:00;20.29;59.87
66522;SHT31;53349;53.538;8.584;2023-09-30T13:04:25;20.34;60.18
66522;SHT31;53349;53.538;8.584;2023-09-30T13:06:50;20.22;60.93
66522;SHT31;53349;53.538;8.584;2023-09-30T13:09:16;20.20;60.92
66522;SHT31;53349;53.538;8.584;2023-09-30T13:11:42;20.10;60.25
66522;SHT31;53349;53.538;8.584;2023-09-30T13:14:08;20.01;59.54
66522;SHT31;53349;53.538;8.584;2023-09-30T13:16:34;19.94;59.70
66522;SHT31;53349;53.538;8.584;2023-09-30T13:18:59;20.03;59.46
66522;SHT31;53349;53.538;8.584;2023-09-30T13:21:26;20.08;59.28
66522;SHT31;53349;53.538;8.584;2023-09-30T13:23:52;19.94;60.08
66522;SHT31;53349;53.538;8.584;2023-09-30T13:26:19;19.91;60.60
66522;SHT31;53349;53.538;8.584;2023-09-30T13:28:44;19.84;59.94
66522;SHT31;53349;53.538;8.584;2023-09-30T13:31:11;19.76;59.44
66522;SHT31;53349;53.538;8.584;2023-09-30T13:33:36;19.66;59.52
66522;SHT31;53349;53.538;8.584;2023-09-30T13:36:02;19.67;58.59
66522;SHT31;53349;53.538;8.584;2023-09-30T13:38:29;19.66;59.91
66522;SHT31;53349;53.538;8.584;2023-09-30T13:40:54;19.66;59.56
66522;SHT31;53349;53.538;8.584;2023-09-30T13:43:19;19.63;59.24
66522;SHT31;53349;53.538;8.584;2023-09-30T13:45:45;19.60;58.94
66522;SHT31;53349;53.538;8.584;2023-09-30T13:48:10;19.56;58.52
66522;SHT31;53349;53.538;8.584;2023-09-30T13:50:35;19.53;59.04
66522;SHT31;53349;53.538;8.584;2023-09-30T13:53:01;19.57;59.82
66522;SHT31;53349;53.538;8.584;2023-09-30T13:55:26;19.57;59.95
66522;SHT31;53349;53.538;8.584;2023-09-30T13:57:52;19.56;60.11
66522;SHT31;53349;53.538;8.584;2023-09-30T14:00:18;19.53;59.34
66522;SHT31;53349;53.538;8.584;2023-09-30T14:02:44;19.53;59.01
66522;SHT31;53349;53.538;8.584;2023-09-30T14:05:11;19.53;60.13
66522;SHT31;53349;53.538;8.584;2023-09-30T14:07:36;19.55;60.08
66522;SHT31;53349;53.538;8.584;2023-09-30T14:10:03;19.52;59.95
66522;SHT31;53349;53.538;8.584;2023-09-30T14:12:28;19.46;59.48
66522;SHT31;53349;53.538;8.584;2023-09-30T14:14:54;19.43;59.66
66522;SHT31;53349;53.538;8.584;2023-09-30T14:17:20;19.42;60.16
66522;SHT31;53349;53.538;8.584;2023-09-30T14:19:45;19.33;60.40
66522;SHT31;53349;53.538;8.584;2023-09-30T14:22:11;19.35;61.04
66522;SHT31;53349;53.538;8.584;2023-09-30T14:24:36;19.33;61.52
66522;SHT31;53349;53.538;8.584;2023-09-30T14:27:04;19.39;61.45
66522;SHT31;53349;53.538;8.584;2023-09-30T14:29:31;19.40;61.98
66522;SHT31;53349;53.538;8.584;2023-09-30T14:31:57;19.35;62.31
66522;SHT31;53349;53.538;8.584;2023-09-30T14:34:24;19.29;62.87
66522;SHT31;53349;53.538;8.584;2023-09-30T14:36:50;19.22;62.96
66522;SHT31;53349;53.538;8.584;2023-09-30T14:39:16;19.18;63.02
66522;SHT31;53349;53.538;8.584;2023-09-30T14:41:42;19.18;63.11
66522;SHT31;53349;53.538;8.584;2023-09-30T14:44:08;19.18;62.97
66522;SHT31;53349;53.538;8.584;2023-09-30T14:46:34;19.14;63.42
66522;SHT31;53349;53.538;8.584;2023-09-30T14:48:59;19.14;63.01
66522;SHT31;53349;53.538;8.584;2023-09-30T14:51:25;19.14;63.36
66522;SHT31;53349;53.538;8.584;2023-09-30T14:53:50;19.16;63.28
66522;SHT31;53349;53.538;8.584;2023-09-30T14:56:16;19.12;63.67
66522;SHT31;53349;53.538;8.584;2023-09-30T14:58:43;19.16;63.24
66522;SHT31;53349;53.538;8.584;2023-09-30T15:01:08;19.19;63.24
66522;SHT31;53349;53.538;8.584;2023-09-30T15:03:34;19.15;62.69
66522;SHT31;53349;53.538;8.584;2023-09-30T15:05:59;19.15;62.64
66522;SHT31;53349;53.538;8.584;2023-09-30T15:08:24;19.12;62.85
66522;SHT31;53349;53.538;8.584;2023-09-30T15:10:50;19.12;63.34
66522;SHT31;53349;53.538;8.584;2023-09-30T15:13:16;19.11;63.61
66522;SHT31;53349;53.538;8.584;2023-09-30T15:15:43;19.12;64.01
66522;SHT31;53349;53.538;8.584;2023-09-30T15:18:08;19.08;64.25
66522;SHT31;53349;53.538;8.584;2023-09-30T15:20:39;19.11;64.35
66522;SHT31;53349;53.538;8.584;2023-09-30T15:23:05;19.12;64.98
66522;SHT31;53349;53.538;8.584;2023-09-30T15:25:31;19.08;65.67
66522;SHT31;53349;53.538;8.584;2023-09-30T15:27:56;19.08;66.44
66522;SHT31;53349;53.538;8.584;2023-09-30T15:30:22;19.07;67.00
66522;SHT31;53349;53.538;8.584;2023-09-30T15:32:47;19.02;67.21
66522;SHT31;53349;53.538;8.584;2023-09-30T15:35:12;18.98;67.62
66522;SHT31;53349;53.538;8.584;2023-09-30T15:37:38;18.92;68.08
66522;SHT31;53349;53.538;8.584;2023-09-30T15:40:04;18.95;68.14
66522;SHT31;53349;53.538;8.584;2023-09-30T15:42:30;18.99;68.25
66522;SHT31;53349;53.538;8.584;2023-09-30T15:44:55;18.99;68.31